Terminal Aerodrome Forecast
Issued by NWS Cleveland, OH

Current Version | Previous Version | Text Only | Print | Product List | Glossary On
Versions: 1 2 3 4 5 6 7 8 9 10 11 12 13 14 15 16 17 18 19 20 21 22 23 24 25 26 27 28 29 30 31
000
FTUS41 KCLE 291100
TAFCLE
TAF
KCLE 291137Z 2912/3018 20010KT P6SM FEW200
     FM291600 20015G25KT P6SM SCT100 BKN200
     FM300000 21018G28KT 5SM -SHRASN OVC045
     FM300500 21018G28KT 6SM -SHRA OVC025
     FM300700 25018G28KT P6SM SCT006 OVC018
     FM301200 26015G22KT P6SM OVC030=

USA.gov is the U.S. government's official web portal to all federal, state and local government web resources and services.